createdAt,value
2023-03-19T00:02:21.375Z,13.69
2023-03-19T00:07:22.776Z,13.72
2023-03-19T00:12:24.144Z,13.71
2023-03-19T00:17:25.661Z,13.68
2023-03-19T00:22:27.021Z,13.53
2023-03-19T00:27:28.415Z,13.54
2023-03-19T00:32:30.041Z,13.21
2023-03-19T00:37:31.613Z,12.96
2023-03-19T00:42:33.162Z,12.97
2023-03-19T00:47:34.608Z,13.04
2023-03-19T00:52:35.943Z,13.08
2023-03-19T00:57:37.288Z,13.13
2023-03-19T01:02:38.630Z,13.15
2023-03-19T01:07:40.293Z,13.16
2023-03-19T01:12:41.786Z,13.09
2023-03-19T01:17:43.430Z,13.08
2023-03-19T01:22:45.949Z,12.82
2023-03-19T01:27:47.456Z,12.76
2023-03-19T01:32:49.198Z,12.87
2023-03-19T01:37:51.003Z,12.96
2023-03-19T01:42:55.097Z,12.96
2023-03-19T01:47:56.522Z,12.93
2023-03-19T01:52:57.934Z,12.91
2023-03-19T01:57:59.343Z,12.85
2023-03-19T02:03:02.114Z,12.83
2023-03-19T02:08:07.297Z,12.66
2023-03-19T02:13:08.743Z,12.61
2023-03-19T02:18:10.613Z,12.56
2023-03-19T02:23:30.271Z,12.28
2023-03-19T02:28:33.467Z,12.25
2023-03-19T02:33:35.303Z,12.31
2023-03-19T02:38:38.909Z,12.36
2023-03-19T02:43:41.907Z,12.43
2023-03-19T02:48:43.807Z,12.44
2023-03-19T02:53:46.020Z,12.41
2023-03-19T02:58:47.680Z,12.45
2023-03-19T03:03:49.670Z,12.47
2023-03-19T03:08:52.067Z,12.44
2023-03-19T03:13:53.407Z,12.38
2023-03-19T03:18:54.744Z,12.27
2023-03-19T03:23:56.318Z,12.19
2023-03-19T03:28:57.690Z,12.09
2023-03-19T03:33:59.070Z,12.00
2023-03-19T03:39:00.431Z,11.88
2023-03-19T03:44:01.808Z,11.81
2023-03-19T03:49:03.273Z,11.71
2023-03-19T03:54:04.653Z,11.54
2023-03-19T03:59:06.108Z,11.43
2023-03-19T04:04:07.551Z,11.38
2023-03-19T04:09:09.089Z,11.32
2023-03-19T04:14:10.605Z,11.30
2023-03-19T04:19:11.945Z,11.26
2023-03-19T04:24:14.166Z,11.21
2023-03-19T04:29:16.592Z,11.16
2023-03-19T04:34:18.008Z,11.04
2023-03-19T04:39:19.589Z,10.94
2023-03-19T04:44:21.781Z,10.91
2023-03-19T04:49:24.499Z,10.89
2023-03-19T04:54:25.995Z,10.83
2023-03-19T04:59:27.441Z,10.85
2023-03-19T05:04:28.880Z,10.80
2023-03-19T05:09:30.849Z,10.73
2023-03-19T05:14:32.502Z,10.79
2023-03-19T05:19:34.032Z,10.80
2023-03-19T05:24:36.133Z,10.78
2023-03-19T05:29:40.734Z,10.68
2023-03-19T05:34:42.331Z,10.75
2023-03-19T05:39:43.810Z,10.78
2023-03-19T05:44:45.262Z,10.78
2023-03-19T05:49:47.253Z,10.78
2023-03-19T05:54:50.564Z,10.78
2023-03-19T05:59:52.569Z,10.83
2023-03-19T06:04:54.209Z,10.88
2023-03-19T06:09:55.858Z,11.03
2023-03-19T06:14:57.293Z,11.17
2023-03-19T06:20:01.218Z,11.29
2023-03-19T06:25:02.667Z,11.41
2023-03-19T06:30:05.108Z,11.56
2023-03-19T06:35:06.748Z,11.68
2023-03-19T06:40:08.699Z,11.85
2023-03-19T06:45:10.563Z,12.00
2023-03-19T06:50:12.336Z,12.17
2023-03-19T06:55:14.115Z,12.19
2023-03-19T07:00:16.640Z,12.37
2023-03-19T07:05:18.099Z,12.45
2023-03-19T07:10:21.972Z,12.59
2023-03-19T07:15:23.364Z,12.78
2023-03-19T07:20:24.850Z,12.93
2023-03-19T07:25:26.515Z,13.06
2023-03-19T07:30:27.985Z,13.24
2023-03-19T07:35:29.459Z,13.51
2023-03-19T07:40:31.428Z,13.59
2023-03-19T07:45:32.972Z,13.78
2023-03-19T07:50:35.270Z,13.98
2023-03-19T07:55:38.458Z,14.05
2023-03-19T08:00:39.920Z,14.14
2023-03-19T08:05:41.893Z,14.27
2023-03-19T08:10:43.873Z,14.25
2023-03-19T08:15:45.427Z,14.39
2023-03-19T08:20:46.889Z,14.43
2023-03-19T08:25:51.631Z,14.61
2023-03-19T08:30:53.135Z,14.67
2023-03-19T08:36:03.571Z,14.71
2023-03-19T08:41:06.233Z,14.76
2023-03-19T08:46:07.679Z,14.93
2023-03-19T08:51:09.918Z,15.06
2023-03-19T08:56:11.307Z,15.09
2023-03-19T09:01:14.475Z,15.38
2023-03-19T09:06:15.983Z,15.52
2023-03-19T09:11:18.061Z,15.66
2023-03-19T09:16:19.769Z,15.83
2023-03-19T09:21:21.506Z,16.05
2023-03-19T09:26:22.930Z,16.04
2023-03-19T09:31:24.760Z,16.21
2023-03-19T09:36:26.584Z,16.37
2023-03-19T09:41:31.336Z,16.75
2023-03-19T09:46:43.221Z,16.97
2023-03-19T09:51:50.248Z,17.14
2023-03-19T09:56:52.337Z,17.22
2023-03-19T10:02:00.959Z,17.46
2023-03-19T10:07:12.875Z,17.77
2023-03-19T10:12:26.159Z,17.85
2023-03-19T10:17:33.177Z,18.08
2023-03-19T10:22:44.019Z,18.17
2023-03-19T10:27:47.235Z,18.30
2023-03-19T10:32:55.086Z,18.25
2023-03-19T10:37:56.521Z,18.32
2023-03-19T10:43:17.697Z,18.49
2023-03-19T10:48:19.678Z,18.33
2023-03-19T10:53:39.954Z,18.31
2023-03-19T10:58:41.791Z,18.43
2023-03-19T11:03:57.477Z,18.25
2023-03-19T11:09:08.135Z,18.15
2023-03-19T11:14:18.260Z,18.05
2023-03-19T11:19:29.476Z,17.81
2023-03-19T11:24:37.609Z,17.48
2023-03-19T11:29:43.908Z,17.43
2023-03-19T11:34:49.195Z,17.40
2023-03-19T11:39:54.044Z,17.12
2023-03-19T11:45:22.965Z,17.05
2023-03-19T11:51:08.880Z,17.16
2023-03-19T11:56:35.096Z,17.30
2023-03-19T12:01:54.768Z,17.57
2023-03-19T12:07:21.155Z,17.61
2023-03-19T12:12:29.983Z,17.74
2023-03-19T12:17:38.948Z,17.83
2023-03-19T12:22:45.331Z,18.12
2023-03-19T12:28:19.038Z,17.95
2023-03-19T12:33:38.707Z,17.87
2023-03-19T12:38:48.191Z,17.89
2023-03-19T12:43:59.358Z,18.08
2023-03-19T12:49:24.308Z,18.56
2023-03-19T12:54:31.427Z,18.61
2023-03-19T12:59:36.476Z,18.95
2023-03-19T13:04:53.329Z,18.80
2023-03-19T13:10:09.217Z,18.69
2023-03-19T13:15:27.683Z,18.98
2023-03-19T13:20:49.014Z,18.91
2023-03-19T13:25:52.856Z,18.27
2023-03-19T13:31:06.159Z,17.90
2023-03-19T13:36:14.573Z,17.24
2023-03-19T13:41:34.868Z,17.16
2023-03-19T13:46:38.452Z,16.84
2023-03-19T13:51:39.928Z,16.54
2023-03-19T13:57:12.830Z,16.51
2023-03-19T14:02:23.880Z,16.66
2023-03-19T14:07:28.816Z,16.65
2023-03-19T14:12:34.183Z,16.56
2023-03-19T14:17:53.880Z,16.52
2023-03-19T14:23:23.311Z,16.42
2023-03-19T14:28:38.826Z,16.12
2023-03-19T14:33:55.824Z,16.40
2023-03-19T14:39:00.565Z,16.84
2023-03-19T14:44:35.479Z,17.17
2023-03-19T14:50:15.949Z,17.57
2023-03-19T14:55:17.756Z,17.57
2023-03-19T15:00:20.465Z,17.67
2023-03-19T15:05:26.235Z,17.77
2023-03-19T15:10:30.766Z,17.95
2023-03-19T15:15:39.528Z,17.77
2023-03-19T15:20:47.360Z,17.70
2023-03-19T15:25:57.575Z,17.53
2023-03-19T15:31:14.430Z,17.64
2023-03-19T15:36:33.246Z,17.62
2023-03-19T15:41:41.210Z,17.80
2023-03-19T15:46:44.509Z,18.13
2023-03-19T15:51:51.637Z,18.55
2023-03-19T15:56:53.641Z,18.87
2023-03-19T16:01:59.528Z,18.98
2023-03-19T16:07:01.364Z,18.92
2023-03-19T16:12:02.767Z,19.12
2023-03-19T16:17:13.034Z,19.07
2023-03-19T16:22:17.574Z,18.95
2023-03-19T16:27:22.485Z,18.75
2023-03-19T16:32:26.081Z,18.57
2023-03-19T16:37:33.796Z,18.28
2023-03-19T16:42:35.239Z,18.18
2023-03-19T16:47:36.764Z,17.97
2023-03-19T16:52:39.622Z,17.92
2023-03-19T16:57:41.318Z,17.80
2023-03-19T17:02:42.659Z,17.70
2023-03-19T17:07:44.376Z,17.48
2023-03-19T17:12:48.892Z,17.19
2023-03-19T17:17:51.009Z,17.14
2023-03-19T17:22:52.373Z,16.96
2023-03-19T17:27:53.956Z,16.67
2023-03-19T17:32:57.045Z,16.64
2023-03-19T17:37:58.392Z,16.52
2023-03-19T17:42:59.908Z,16.42
2023-03-19T17:48:01.311Z,16.20
2023-03-19T17:53:02.709Z,16.05
2023-03-19T17:58:04.158Z,15.91
2023-03-19T18:03:05.680Z,15.78
2023-03-19T18:08:07.067Z,15.69
2023-03-19T18:13:09.384Z,15.64
2023-03-19T18:18:20.964Z,15.58
2023-03-19T18:23:24.005Z,15.49
2023-03-19T18:28:25.526Z,15.39
2023-03-19T18:33:30.151Z,15.31
2023-03-19T18:38:31.543Z,15.24
2023-03-19T18:43:32.874Z,15.15
2023-03-19T18:48:34.229Z,15.04
2023-03-19T18:53:35.694Z,14.92
2023-03-19T18:58:38.730Z,14.80
2023-03-19T19:03:40.218Z,14.57
2023-03-19T19:08:41.550Z,14.43
2023-03-19T19:13:55.663Z,14.36
2023-03-19T19:18:58.163Z,14.26
2023-03-19T19:23:59.548Z,14.12
2023-03-19T19:29:01.239Z,13.85
2023-03-19T19:34:02.801Z,13.45
2023-03-19T19:39:04.279Z,13.48
2023-03-19T19:44:06.666Z,13.47
2023-03-19T19:49:12.742Z,13.45
2023-03-19T19:54:14.128Z,13.47
2023-03-19T19:59:15.826Z,13.49
2023-03-19T20:04:17.328Z,13.54
2023-03-19T20:09:18.700Z,13.55
2023-03-19T20:14:20.337Z,13.54
2023-03-19T20:19:21.797Z,13.59
2023-03-19T20:24:23.196Z,13.64
2023-03-19T20:29:24.542Z,13.67
2023-03-19T20:34:38.780Z,13.63
2023-03-19T20:39:40.923Z,13.54
2023-03-19T20:44:43.388Z,13.41
2023-03-19T20:49:45.599Z,13.49
2023-03-19T20:54:48.023Z,13.55
2023-03-19T20:59:49.664Z,13.55
2023-03-19T21:04:51.615Z,13.39
2023-03-19T21:09:53.007Z,13.27
2023-03-19T21:14:54.706Z,13.23
2023-03-19T21:19:56.636Z,13.37
2023-03-19T21:25:07.796Z,13.47
2023-03-19T21:30:14.697Z,13.51
2023-03-19T21:35:24.261Z,13.51
2023-03-19T21:40:29.821Z,13.57
2023-03-19T21:45:33.911Z,13.59
2023-03-19T21:50:35.656Z,13.62
2023-03-19T21:55:37.232Z,13.64
2023-03-19T22:00:39.122Z,13.66
2023-03-19T22:05:40.644Z,13.71
2023-03-19T22:10:42.752Z,13.73
2023-03-19T22:15:44.102Z,13.77
2023-03-19T22:20:46.928Z,13.81
2023-03-19T22:25:50.775Z,13.83
2023-03-19T22:30:52.442Z,13.81
2023-03-19T22:35:53.931Z,13.83
2023-03-19T22:40:56.262Z,13.85
2023-03-19T22:46:02.280Z,13.86
2023-03-19T22:51:04.742Z,13.84
2023-03-19T22:56:06.329Z,13.79
2023-03-19T23:01:28.941Z,13.69
2023-03-19T23:06:31.132Z,13.73
2023-03-19T23:11:32.523Z,13.62
2023-03-19T23:16:34.205Z,13.53
2023-03-19T23:21:35.542Z,13.42
2023-03-19T23:26:37.339Z,13.19
2023-03-19T23:31:38.686Z,13.19
2023-03-19T23:36:41.810Z,13.18
2023-03-19T23:41:53.524Z,13.16
2023-03-19T23:46:57.840Z,13.07
2023-03-19T23:52:00.000Z,13.09
2023-03-19T23:57:06.529Z,12.97
